createdAt,value
2019-03-23T00:00:32.934Z,4.86
2019-03-23T00:03:02.676Z,4.78
2019-03-23T00:05:32.396Z,4.69
2019-03-23T00:08:02.145Z,4.63
2019-03-23T00:10:31.910Z,4.58
2019-03-23T00:13:01.651Z,4.49
2019-03-23T00:15:31.502Z,4.53
2019-03-23T00:18:01.174Z,4.49
2019-03-23T00:20:30.927Z,4.58
2019-03-23T00:23:00.657Z,4.63
2019-03-23T00:25:30.365Z,4.60
2019-03-23T00:28:00.105Z,4.51
2019-03-23T00:30:29.845Z,4.50
2019-03-23T00:32:59.556Z,4.43
2019-03-23T00:35:29.588Z,4.37
2019-03-23T00:37:59.408Z,4.34
2019-03-23T00:40:29.125Z,4.34
2019-03-23T00:42:58.875Z,4.35
2019-03-23T00:45:28.623Z,4.27
2019-03-23T00:47:58.371Z,4.28
2019-03-23T00:50:28.164Z,4.34
2019-03-23T00:52:57.861Z,4.30
2019-03-23T00:55:27.563Z,4.18
2019-03-23T00:57:57.295Z,4.13
2019-03-23T01:00:26.990Z,4.08
2019-03-23T01:02:56.808Z,3.98
2019-03-23T01:05:26.521Z,4.00
2019-03-23T01:07:56.223Z,4.02
2019-03-23T01:10:25.950Z,4.10
2019-03-23T01:12:55.708Z,4.07
2019-03-23T01:15:25.456Z,3.96
2019-03-23T01:17:55.159Z,3.88
2019-03-23T01:20:24.870Z,3.83
2019-03-23T01:22:54.652Z,3.82
2019-03-23T01:25:24.432Z,3.85
2019-03-23T01:27:54.118Z,3.84
2019-03-23T01:30:23.929Z,3.74
2019-03-23T01:32:53.613Z,3.70
2019-03-23T01:35:23.418Z,3.61
2019-03-23T01:37:53.134Z,3.55
2019-03-23T01:40:23.024Z,3.56
2019-03-23T01:42:52.764Z,3.51
2019-03-23T01:45:22.539Z,3.48
2019-03-23T01:47:52.210Z,3.49
2019-03-23T01:50:21.967Z,3.60
2019-03-23T01:52:51.648Z,3.67
2019-03-23T01:55:21.377Z,3.62
2019-03-23T01:57:51.106Z,3.57
2019-03-23T02:00:20.835Z,3.48
2019-03-23T02:02:50.711Z,3.40
2019-03-23T02:05:20.484Z,3.34
2019-03-23T02:07:50.176Z,3.40
2019-03-23T02:10:19.890Z,3.43
2019-03-23T02:12:49.622Z,3.48
2019-03-23T02:15:19.325Z,3.52
2019-03-23T02:17:49.053Z,3.53
2019-03-23T02:20:18.753Z,3.50
2019-03-23T02:22:48.471Z,3.36
2019-03-23T02:25:18.267Z,3.30
2019-03-23T02:27:48.012Z,3.25
2019-03-23T02:30:17.863Z,3.20
2019-03-23T02:32:47.613Z,3.24
2019-03-23T02:35:17.314Z,3.30
2019-03-23T02:37:47.134Z,3.34
2019-03-23T02:40:16.806Z,3.37
2019-03-23T02:42:46.541Z,3.28
2019-03-23T02:45:16.315Z,3.35
2019-03-23T02:47:46.049Z,3.25
2019-03-23T02:50:15.754Z,3.11
2019-03-23T02:52:45.492Z,3.03
2019-03-23T02:55:15.232Z,3.00
2019-03-23T02:57:44.957Z,3.05
2019-03-23T03:00:14.737Z,3.06
2019-03-23T03:02:44.449Z,3.05
2019-03-23T03:05:14.372Z,3.01
2019-03-23T03:07:44.231Z,2.88
2019-03-23T03:10:17.768Z,2.80
2019-03-23T03:12:47.442Z,2.82
2019-03-23T03:15:17.182Z,2.74
2019-03-23T03:17:46.950Z,2.68
2019-03-23T03:20:16.790Z,2.63
2019-03-23T03:22:46.564Z,2.60
2019-03-23T03:25:16.310Z,2.41
2019-03-23T03:27:46.062Z,2.43
2019-03-23T03:30:15.819Z,2.38
2019-03-23T03:32:45.458Z,2.38
2019-03-23T03:35:15.295Z,2.37
2019-03-23T03:37:55.869Z,2.34
2019-03-23T03:40:16.606Z,2.42
2019-03-23T03:42:46.267Z,2.41
2019-03-23T03:45:22.475Z,2.37
2019-03-23T03:47:52.168Z,2.41
2019-03-23T03:50:22.117Z,2.44
2019-03-23T03:52:51.798Z,2.50
2019-03-23T03:55:21.491Z,2.40
2019-03-23T03:57:51.177Z,2.33
2019-03-23T04:00:21.003Z,2.35
2019-03-23T04:02:50.713Z,2.35
2019-03-23T04:05:20.508Z,2.29
2019-03-23T04:07:50.304Z,2.24
2019-03-23T04:10:20.025Z,2.25
2019-03-23T04:12:49.720Z,2.22
2019-03-23T04:15:19.553Z,2.20
2019-03-23T04:17:49.221Z,2.14
2019-03-23T04:20:18.900Z,2.10
2019-03-23T04:22:48.582Z,2.22
2019-03-23T04:25:18.285Z,2.21
2019-03-23T04:27:47.985Z,2.24
2019-03-23T04:30:17.787Z,2.18
2019-03-23T04:32:47.459Z,2.12
2019-03-23T04:35:17.165Z,2.02
2019-03-23T04:37:46.966Z,1.99
2019-03-23T04:40:16.741Z,2.11
2019-03-23T04:42:46.423Z,2.10
2019-03-23T04:45:16.131Z,2.01
2019-03-23T04:47:45.917Z,1.90
2019-03-23T04:50:15.645Z,1.84
2019-03-23T04:52:45.387Z,1.78
2019-03-23T04:55:15.892Z,1.86
2019-03-23T04:57:45.619Z,1.85
2019-03-23T05:00:16.152Z,1.81
2019-03-23T05:02:45.954Z,1.82
2019-03-23T05:05:15.762Z,1.81
2019-03-23T05:07:45.473Z,1.87
2019-03-23T05:10:15.295Z,1.93
2019-03-23T05:12:44.986Z,1.85
2019-03-23T05:15:14.809Z,1.66
2019-03-23T05:17:44.524Z,1.87
2019-03-23T05:20:25.019Z,1.93
2019-03-23T05:22:54.740Z,2.01
2019-03-23T05:25:25.850Z,2.06
2019-03-23T05:27:55.570Z,2.10
2019-03-23T05:30:25.279Z,2.14
2019-03-23T05:32:55.144Z,2.12
2019-03-23T05:35:24.841Z,2.17
2019-03-23T05:37:54.561Z,2.13
2019-03-23T05:40:24.466Z,2.09
2019-03-23T05:42:54.203Z,2.06
2019-03-23T05:45:24.414Z,2.05
2019-03-23T05:47:54.127Z,2.07
2019-03-23T05:50:25.650Z,2.12
2019-03-23T05:52:55.376Z,2.22
2019-03-23T05:55:25.063Z,2.19
2019-03-23T05:57:54.749Z,2.04
2019-03-23T06:00:24.583Z,2.03
2019-03-23T06:02:54.345Z,1.93
2019-03-23T06:05:24.777Z,1.92
2019-03-23T06:07:54.605Z,1.92
2019-03-23T06:10:24.411Z,1.90
2019-03-23T06:12:54.111Z,1.92
2019-03-23T06:15:23.901Z,1.96
2019-03-23T06:17:53.629Z,2.01
2019-03-23T06:20:23.383Z,2.12
2019-03-23T06:22:53.226Z,2.33
2019-03-23T06:25:22.946Z,2.54
2019-03-23T06:27:52.715Z,2.64
2019-03-23T06:30:22.367Z,2.67
2019-03-23T06:32:52.048Z,2.60
2019-03-23T06:35:21.732Z,2.59
2019-03-23T06:37:51.525Z,2.63
2019-03-23T06:40:21.269Z,2.68
2019-03-23T06:42:59.418Z,2.63
2019-03-23T06:45:22.673Z,2.70
2019-03-23T06:47:52.512Z,2.81
2019-03-23T06:50:22.253Z,2.96
2019-03-23T06:52:51.996Z,3.11
2019-03-23T06:55:21.762Z,3.21
2019-03-23T06:57:51.626Z,3.37
2019-03-23T07:00:21.466Z,3.67
2019-03-23T07:02:51.150Z,4.07
2019-03-23T07:05:20.878Z,4.42
2019-03-23T07:07:50.644Z,4.82
2019-03-23T07:10:20.603Z,5.15
2019-03-23T07:12:50.337Z,5.54
2019-03-23T07:15:20.654Z,5.62
2019-03-23T07:17:50.453Z,5.83
2019-03-23T07:20:20.148Z,6.09
2019-03-23T07:22:49.877Z,6.44
2019-03-23T07:25:19.631Z,6.61
2019-03-23T07:27:49.404Z,7.02
2019-03-23T07:30:19.533Z,7.27
2019-03-23T07:32:50.430Z,7.62
2019-03-23T07:35:20.137Z,7.87
2019-03-23T07:37:49.943Z,8.24
2019-03-23T07:40:19.739Z,8.54
2019-03-23T07:42:49.528Z,8.78
2019-03-23T07:45:19.385Z,9.08
2019-03-23T07:47:49.067Z,9.22
2019-03-23T07:50:18.832Z,9.49
2019-03-23T07:52:48.549Z,9.73
2019-03-23T07:55:18.359Z,9.90
2019-03-23T07:57:48.364Z,10.15
2019-03-23T08:00:19.644Z,10.41
2019-03-23T08:02:49.510Z,10.54
2019-03-23T08:05:19.478Z,10.89
2019-03-23T08:07:49.221Z,10.95
2019-03-23T08:10:32.669Z,11.47
2019-03-23T08:13:02.601Z,11.38
2019-03-23T08:15:32.738Z,11.66
2019-03-23T08:18:02.462Z,12.24
2019-03-23T08:20:32.174Z,12.63
2019-03-23T08:23:01.912Z,13.10
2019-03-23T08:25:32.011Z,13.18
2019-03-23T08:28:01.774Z,12.91
2019-03-23T08:30:31.520Z,13.13
2019-03-23T08:33:01.240Z,13.23
2019-03-23T08:35:30.957Z,13.60
2019-03-23T08:38:00.650Z,13.81
2019-03-23T08:40:30.394Z,14.01
2019-03-23T08:43:00.169Z,14.73
2019-03-23T08:45:29.997Z,17.02
2019-03-23T08:47:59.751Z,19.27
2019-03-23T08:50:29.488Z,19.81
2019-03-23T08:52:59.392Z,20.88
2019-03-23T08:55:29.202Z,19.40
2019-03-23T08:57:58.941Z,18.81
2019-03-23T09:00:28.618Z,19.05
2019-03-23T09:02:58.405Z,20.38
2019-03-23T09:05:28.171Z,21.71
2019-03-23T09:07:58.217Z,22.07
2019-03-23T09:10:27.923Z,21.78
2019-03-23T09:12:57.628Z,21.41
2019-03-23T09:15:27.374Z,20.91
2019-03-23T09:17:57.048Z,20.86
2019-03-23T09:20:29.367Z,21.72
2019-03-23T09:22:58.540Z,23.37
2019-03-23T09:25:28.255Z,23.97
2019-03-23T09:27:57.955Z,24.36
2019-03-23T09:30:27.793Z,23.82
2019-03-23T09:32:57.574Z,22.42
2019-03-23T09:35:28.936Z,21.22
2019-03-23T09:37:58.696Z,20.18
2019-03-23T09:40:28.483Z,19.59
2019-03-23T09:42:58.283Z,17.30
2019-03-23T09:45:28.044Z,18.17
2019-03-23T09:47:57.797Z,17.55
2019-03-23T09:50:27.610Z,16.75
2019-03-23T09:52:57.324Z,18.20
2019-03-23T09:55:28.667Z,16.99
2019-03-23T09:58:01.948Z,18.15
2019-03-23T10:00:31.650Z,17.99
2019-03-23T10:03:01.396Z,17.78
2019-03-23T10:05:31.095Z,18.91
2019-03-23T10:08:00.961Z,19.49
2019-03-23T10:10:30.892Z,19.86
2019-03-23T10:13:00.745Z,20.27
2019-03-23T10:15:30.444Z,19.52
2019-03-23T10:18:01.656Z,19.33
2019-03-23T10:20:31.516Z,18.23
2019-03-23T10:23:01.344Z,19.43
2019-03-23T10:25:31.178Z,18.91
2019-03-23T10:28:00.950Z,19.64
2019-03-23T10:30:30.707Z,19.18
2019-03-23T10:33:00.621Z,19.40
2019-03-23T10:35:30.418Z,19.37
2019-03-23T10:38:00.173Z,19.07
2019-03-23T10:40:32.707Z,20.07
2019-03-23T10:43:01.775Z,20.84
2019-03-23T10:45:31.486Z,21.18
2019-03-23T10:48:01.198Z,21.65
2019-03-23T10:50:30.941Z,21.39
2019-03-23T10:53:00.706Z,20.42
2019-03-23T10:55:30.490Z,21.08
2019-03-23T10:58:00.259Z,20.63
2019-03-23T11:00:29.979Z,19.35
2019-03-23T11:02:59.896Z,20.44
2019-03-23T11:05:29.892Z,19.49
2019-03-23T11:07:59.632Z,18.93
2019-03-23T11:10:29.378Z,19.34
2019-03-23T11:12:59.226Z,18.42
2019-03-23T11:15:28.967Z,19.24
2019-03-23T11:17:58.732Z,20.59
2019-03-23T11:20:28.541Z,20.08
2019-03-23T11:22:58.290Z,19.48
2019-03-23T11:25:28.149Z,20.13
2019-03-23T11:27:57.870Z,19.68
2019-03-23T11:30:27.627Z,19.48
2019-03-23T11:32:57.442Z,19.94
2019-03-23T11:35:27.228Z,21.02
2019-03-23T11:37:57.132Z,21.29
2019-03-23T11:40:28.007Z,20.72
2019-03-23T11:42:57.757Z,21.42
2019-03-23T11:45:27.530Z,21.36
2019-03-23T11:47:57.227Z,20.68
2019-03-23T11:50:26.954Z,20.90
2019-03-23T11:52:56.827Z,21.79
2019-03-23T11:55:26.545Z,21.31
2019-03-23T11:57:56.394Z,21.72
2019-03-23T12:00:26.244Z,21.37
2019-03-23T12:02:55.974Z,20.50
2019-03-23T12:05:25.708Z,20.15
2019-03-23T12:07:55.485Z,20.18
2019-03-23T12:10:25.269Z,20.54
2019-03-23T12:12:55.152Z,21.13
2019-03-23T12:15:24.905Z,20.88
2019-03-23T12:17:55.011Z,20.42
2019-03-23T12:20:24.847Z,20.16
2019-03-23T12:22:55.291Z,19.63
2019-03-23T12:25:25.112Z,20.43
2019-03-23T12:27:54.832Z,20.32
2019-03-23T12:30:24.574Z,20.68
2019-03-23T12:32:54.305Z,19.87
2019-03-23T12:35:24.135Z,20.24
2019-03-23T12:37:53.909Z,20.46
2019-03-23T12:40:23.660Z,22.17
2019-03-23T12:42:53.482Z,21.33
2019-03-23T12:45:23.339Z,20.18
2019-03-23T12:47:53.075Z,19.61
2019-03-23T12:50:22.772Z,20.74
2019-03-23T12:52:52.522Z,20.32
2019-03-23T12:55:22.256Z,20.25
2019-03-23T12:57:52.040Z,20.42
2019-03-23T13:00:21.784Z,20.74
2019-03-23T13:02:51.574Z,21.10
2019-03-23T13:05:21.312Z,21.46
2019-03-23T13:07:51.056Z,21.08
2019-03-23T13:10:20.795Z,19.79
2019-03-23T13:12:50.489Z,20.25
2019-03-23T13:15:20.215Z,20.80
2019-03-23T13:17:49.921Z,21.16
2019-03-23T13:20:19.762Z,22.29
2019-03-23T13:22:49.593Z,21.81
2019-03-23T13:25:19.383Z,21.35
2019-03-23T13:27:49.134Z,21.52
2019-03-23T13:30:19.441Z,20.91
2019-03-23T13:32:49.192Z,20.47
2019-03-23T13:35:18.963Z,20.79
2019-03-23T13:37:48.706Z,21.17
2019-03-23T13:40:18.499Z,21.55
2019-03-23T13:42:48.607Z,20.87
2019-03-23T13:45:18.839Z,21.10
2019-03-23T13:47:48.595Z,20.78
2019-03-23T13:50:26.377Z,20.33
2019-03-23T13:52:56.157Z,20.93
2019-03-23T13:55:30.032Z,20.81
2019-03-23T13:58:09.246Z,21.17
2019-03-23T14:00:39.110Z,20.36
2019-03-23T14:03:08.981Z,20.92
2019-03-23T14:05:38.851Z,20.01
2019-03-23T14:08:08.809Z,20.43
2019-03-23T14:10:38.541Z,20.86
2019-03-23T14:13:08.297Z,21.04
2019-03-23T14:15:38.039Z,20.76
2019-03-23T14:18:07.904Z,21.30
2019-03-23T14:20:37.637Z,21.74
2019-03-23T14:23:07.449Z,20.95
2019-03-23T14:25:37.179Z,20.55
2019-03-23T14:28:08.223Z,20.96
2019-03-23T14:30:38.018Z,21.18
2019-03-23T14:33:07.764Z,21.09
2019-03-23T14:35:37.677Z,20.56
2019-03-23T14:38:07.429Z,20.17
2019-03-23T14:40:37.143Z,20.08
2019-03-23T14:43:07.006Z,20.28
2019-03-23T14:45:37.038Z,19.91
2019-03-23T14:48:06.972Z,19.76
2019-03-23T14:50:36.836Z,19.52
2019-03-23T14:53:06.947Z,19.83
2019-03-23T14:55:37.560Z,19.70
2019-03-23T14:58:07.313Z,19.27
2019-03-23T15:00:37.011Z,19.59
2019-03-23T15:03:06.982Z,19.53
2019-03-23T15:05:36.885Z,20.07
2019-03-23T15:08:06.610Z,20.01
2019-03-23T15:10:36.339Z,20.57
2019-03-23T15:13:06.144Z,20.28
2019-03-23T15:15:35.919Z,19.71
2019-03-23T15:18:05.735Z,19.14
2019-03-23T15:20:35.646Z,19.32
2019-03-23T15:23:05.560Z,19.61
2019-03-23T15:25:35.303Z,19.63
2019-03-23T15:28:04.986Z,19.57
2019-03-23T15:30:34.693Z,19.80
2019-03-23T15:33:04.499Z,19.82
2019-03-23T15:35:34.529Z,19.20
2019-03-23T15:38:04.562Z,19.77
2019-03-23T15:40:34.327Z,19.76
2019-03-23T15:43:04.211Z,19.92
2019-03-23T15:45:34.082Z,19.71
2019-03-23T15:48:04.189Z,19.55
2019-03-23T15:50:33.967Z,19.57
2019-03-23T15:53:03.892Z,19.35
2019-03-23T15:55:33.708Z,19.29
2019-03-23T15:58:03.560Z,18.81
2019-03-23T16:00:33.436Z,19.06
2019-03-23T16:03:03.201Z,19.17
2019-03-23T16:05:32.921Z,18.67
2019-03-23T16:08:02.640Z,18.63
2019-03-23T16:10:32.506Z,18.48
2019-03-23T16:13:02.337Z,18.43
2019-03-23T16:15:32.278Z,18.39
2019-03-23T16:18:02.099Z,18.57
2019-03-23T16:20:31.923Z,18.54
2019-03-23T16:23:01.652Z,18.42
2019-03-23T16:25:31.522Z,18.32
2019-03-23T16:28:01.377Z,18.50
2019-03-23T16:30:32.879Z,18.43
2019-03-23T16:35:40.012Z,18.14
2019-03-23T17:07:21.266Z,17.13
2019-03-23T17:09:51.285Z,17.11
2019-03-23T17:12:21.042Z,16.99
2019-03-23T17:14:50.871Z,16.91
2019-03-23T19:39:36.677Z,11.71
2019-03-23T19:42:06.484Z,11.70
2019-03-23T19:44:36.346Z,11.60
2019-03-23T19:47:06.175Z,11.52
2019-03-23T19:49:35.930Z,11.39
2019-03-23T19:52:05.760Z,11.36
2019-03-23T19:54:36.724Z,11.31
2019-03-23T19:57:06.557Z,11.26
2019-03-23T19:59:36.467Z,11.18
2019-03-23T20:02:06.468Z,11.06
2019-03-23T20:04:36.413Z,10.98
2019-03-23T20:07:06.505Z,10.91
2019-03-23T20:09:36.342Z,10.84
2019-03-23T20:12:06.178Z,10.82
2019-03-23T20:14:35.963Z,10.75
2019-03-23T20:17:05.886Z,10.66
2019-03-23T20:19:35.696Z,10.61
2019-03-23T20:22:05.475Z,10.53
2019-03-23T20:24:35.325Z,10.53
2019-03-23T20:27:05.145Z,10.40
2019-03-23T20:29:34.942Z,10.33
2019-03-23T20:32:04.721Z,10.26
2019-03-23T20:34:34.537Z,10.11
2019-03-23T20:37:04.492Z,10.00
2019-03-23T20:39:34.454Z,9.91
2019-03-23T20:42:04.186Z,9.86
2019-03-23T20:44:34.083Z,9.80
2019-03-23T20:47:03.802Z,9.56
2019-03-23T20:49:33.543Z,9.34
2019-03-23T20:52:03.361Z,9.20
2019-03-23T20:54:33.391Z,9.04
2019-03-23T20:57:03.282Z,8.98
2019-03-23T20:59:33.054Z,8.92
2019-03-23T21:02:03.047Z,8.87
2019-03-23T21:04:32.930Z,8.82
2019-03-23T21:07:02.745Z,8.82
2019-03-23T21:09:32.516Z,8.78
2019-03-23T21:12:02.339Z,8.70
2019-03-23T21:14:32.145Z,8.57
2019-03-23T21:17:01.883Z,8.61
2019-03-23T21:19:31.634Z,8.63
2019-03-23T21:22:01.487Z,8.64
2019-03-23T21:24:31.378Z,8.64
2019-03-23T21:27:01.172Z,8.67
2019-03-23T21:29:30.957Z,8.67
2019-03-23T21:32:00.782Z,8.64
2019-03-23T21:34:30.496Z,8.65
2019-03-23T21:37:00.348Z,8.70
2019-03-23T21:39:30.122Z,8.74
2019-03-23T21:41:59.881Z,8.67
2019-03-23T21:44:31.194Z,8.71
2019-03-23T21:47:02.727Z,8.63
2019-03-23T21:49:32.628Z,8.57
2019-03-23T21:52:02.473Z,8.56
2019-03-23T21:54:32.263Z,8.50
2019-03-23T21:57:02.083Z,8.47
2019-03-23T21:59:31.905Z,8.39
2019-03-23T22:02:01.654Z,8.26
2019-03-23T22:04:31.466Z,8.18
2019-03-23T22:07:01.419Z,8.07
2019-03-23T22:09:31.272Z,8.00
2019-03-23T22:12:01.268Z,7.87
2019-03-23T22:14:41.171Z,7.72
2019-03-23T22:17:02.583Z,7.66
2019-03-23T22:19:32.293Z,7.61
2019-03-23T22:22:02.035Z,7.50
2019-03-23T22:24:31.803Z,7.40
2019-03-23T22:27:01.612Z,7.28
2019-03-23T22:29:31.468Z,7.21
2019-03-23T22:32:01.449Z,7.21
2019-03-23T22:34:31.369Z,7.14
2019-03-23T22:37:01.057Z,7.09
2019-03-23T22:39:31.139Z,7.03
2019-03-23T22:42:00.933Z,6.98
2019-03-23T22:44:30.763Z,6.94
2019-03-23T22:47:00.476Z,6.90
2019-03-23T22:49:30.639Z,6.91
2019-03-23T22:52:00.545Z,7.01
2019-03-23T22:54:30.522Z,7.10
2019-03-23T22:57:00.257Z,7.02
2019-03-23T22:59:30.094Z,6.97
2019-03-23T23:01:59.994Z,6.96
2019-03-23T23:04:29.737Z,7.04
2019-03-23T23:06:59.473Z,7.05
2019-03-23T23:09:29.222Z,6.94
2019-03-23T23:11:59.014Z,6.77
2019-03-23T23:14:28.741Z,6.64
2019-03-23T23:16:58.414Z,6.56
2019-03-23T23:19:28.369Z,6.49
2019-03-23T23:21:58.090Z,6.43
2019-03-23T23:24:27.845Z,6.43
2019-03-23T23:26:57.562Z,6.36
2019-03-23T23:29:29.118Z,6.27
2019-03-23T23:31:58.885Z,6.19
2019-03-23T23:34:28.629Z,6.07
2019-03-23T23:36:58.462Z,5.97
2019-03-23T23:39:28.247Z,5.93
2019-03-23T23:41:58.032Z,5.91
2019-03-23T23:44:27.762Z,5.85
2019-03-23T23:46:57.492Z,5.83
2019-03-23T23:49:27.164Z,5.74
2019-03-23T23:51:56.990Z,5.75
2019-03-23T23:54:26.683Z,5.74
2019-03-23T23:56:56.696Z,5.88
2019-03-23T23:59:27.819Z,5.97
